createdAt,value
2019-03-16T00:01:12.723Z,99287.05
2019-03-16T00:03:37.567Z,99282.80
2019-03-16T00:06:03.567Z,99283.63
2019-03-16T00:08:29.526Z,99280.55
2019-03-16T00:10:55.393Z,99284.87
2019-03-16T00:13:21.244Z,99283.63
2019-03-16T00:15:47.111Z,99282.88
2019-03-16T00:18:13.084Z,99282.17
2019-03-16T00:20:38.959Z,99284.72
2019-03-16T00:23:04.833Z,99289.98
2019-03-16T00:25:30.713Z,99289.91
2019-03-16T00:27:56.550Z,99290.69
2019-03-16T00:30:22.622Z,99297.11
2019-03-16T00:32:48.506Z,99295.23
2019-03-16T00:35:14.491Z,99289.37
2019-03-16T00:37:40.314Z,99292.86
2019-03-16T00:40:07.625Z,99290.23
2019-03-16T00:42:33.483Z,99281.48
2019-03-16T00:44:59.359Z,99279.78
2019-03-16T00:47:25.331Z,99286.97
2019-03-16T00:49:51.493Z,99282.23
2019-03-16T00:52:17.371Z,99284.57
2019-03-16T00:54:43.275Z,99283.86
2019-03-16T00:57:09.202Z,99285.25
2019-03-16T00:59:35.042Z,99279.98
2019-03-16T01:02:00.940Z,99279.61
2019-03-16T01:04:26.845Z,99283.94
2019-03-16T01:06:52.810Z,99278.67
2019-03-16T01:09:18.740Z,99281.16
2019-03-16T01:11:44.587Z,99277.61
2019-03-16T01:14:10.812Z,99284.72
2019-03-16T01:16:36.865Z,99279.08
2019-03-16T01:19:02.846Z,99280.85
2019-03-16T01:21:28.817Z,99279.23
2019-03-16T01:23:54.660Z,99272.81
2019-03-16T01:26:20.517Z,99276.20
2019-03-16T01:28:46.420Z,99276.13
2019-03-16T01:31:12.395Z,99279.54
2019-03-16T01:33:38.263Z,99279.54
2019-03-16T01:36:04.236Z,99282.17
2019-03-16T01:38:30.131Z,99277.77
2019-03-16T01:40:56.013Z,99270.48
2019-03-16T01:43:21.885Z,99274.88
2019-03-16T01:45:47.728Z,99278.30
2019-03-16T01:48:13.616Z,99277.52
2019-03-16T01:50:39.574Z,99279.23
2019-03-16T01:53:05.424Z,99280.06
2019-03-16T01:55:31.267Z,99275.75
2019-03-16T01:57:57.164Z,99282.24
2019-03-16T02:00:23.006Z,99278.67
2019-03-16T02:02:55.454Z,99275.59
2019-03-16T02:05:16.579Z,99280.78
2019-03-16T02:07:42.437Z,99276.30
2019-03-16T02:10:08.630Z,99279.01
2019-03-16T02:12:34.524Z,99281.08
2019-03-16T02:15:00.420Z,99282.72
2019-03-16T02:17:26.335Z,99290.69
2019-03-16T02:19:52.187Z,99291.52
2019-03-16T02:22:18.057Z,99292.83
2019-03-16T02:24:43.919Z,99291.14
2019-03-16T02:27:09.863Z,99288.52
2019-03-16T02:29:35.776Z,99289.04
2019-03-16T02:32:01.628Z,99295.16
2019-03-16T02:34:27.609Z,99292.91
2019-03-16T02:36:53.465Z,99293.70
2019-03-16T02:39:19.302Z,99293.17
2019-03-16T02:41:45.602Z,99294.15
2019-03-16T02:44:11.676Z,99297.34
2019-03-16T02:46:37.501Z,99296.41
2019-03-16T02:49:03.375Z,99299.41
2019-03-16T02:51:29.210Z,99294.15
2019-03-16T02:53:55.093Z,99297.19
2019-03-16T02:56:21.065Z,99296.17
2019-03-16T02:58:46.916Z,99292.23
2019-03-16T03:01:12.778Z,99293.70
2019-03-16T03:03:38.658Z,99292.08
2019-03-16T03:06:04.603Z,99294.71
2019-03-16T03:08:30.551Z,99293.32
2019-03-16T03:10:56.607Z,99295.02
2019-03-16T03:13:22.494Z,99295.88
2019-03-16T03:15:48.333Z,99301.97
2019-03-16T03:18:14.336Z,99300.34
2019-03-16T03:20:40.368Z,99297.27
2019-03-16T03:23:06.229Z,99296.41
2019-03-16T03:25:32.085Z,99298.17
2019-03-16T03:27:57.932Z,99299.90
2019-03-16T03:30:23.826Z,99300.72
2019-03-16T03:32:49.682Z,99299.33
2019-03-16T03:35:15.628Z,99300.20
2019-03-16T03:37:41.525Z,99299.41
2019-03-16T03:40:08.267Z,99298.25
2019-03-16T03:42:34.205Z,99296.94
2019-03-16T03:45:00.111Z,99301.66
2019-03-16T03:47:26.027Z,99296.94
2019-03-16T03:49:51.894Z,99304.89
2019-03-16T03:52:17.758Z,99299.72
2019-03-16T03:54:43.741Z,99299.34
2019-03-16T03:57:09.732Z,99300.66
2019-03-16T03:59:35.763Z,99301.52
2019-03-16T04:02:01.715Z,99301.52
2019-03-16T04:04:27.703Z,99297.88
2019-03-16T04:06:53.706Z,99302.68
2019-03-16T04:09:19.676Z,99306.63
2019-03-16T04:11:45.653Z,99301.81
2019-03-16T04:14:11.510Z,99298.25
2019-03-16T04:16:37.379Z,99295.62
2019-03-16T04:19:03.228Z,99301.66
2019-03-16T04:21:29.175Z,99296.48
2019-03-16T04:23:55.148Z,99301.73
2019-03-16T04:26:21.132Z,99303.44
2019-03-16T04:28:47.085Z,99306.39
2019-03-16T04:31:12.950Z,99301.13
2019-03-16T04:33:38.857Z,99310.72
2019-03-16T04:36:04.809Z,99311.09
2019-03-16T04:38:30.669Z,99313.34
2019-03-16T04:40:56.528Z,99313.34
2019-03-16T04:43:22.489Z,99313.80
2019-03-16T04:45:48.340Z,99309.93
2019-03-16T04:48:14.206Z,99312.64
2019-03-16T04:50:40.154Z,99318.69
2019-03-16T04:53:06.084Z,99316.43
2019-03-16T04:55:32.051Z,99316.28
2019-03-16T04:57:58.431Z,99318.83
2019-03-16T05:00:24.278Z,99322.70
2019-03-16T05:02:50.247Z,99325.25
2019-03-16T05:05:16.161Z,99319.92
2019-03-16T05:07:42.006Z,99321.16
2019-03-16T05:10:08.979Z,99328.45
2019-03-16T05:12:35.097Z,99285.96
2019-03-16T05:15:01.081Z,99330.55
2019-03-16T05:17:26.911Z,99330.09
2019-03-16T05:19:52.782Z,99333.55
2019-03-16T05:22:18.663Z,99332.65
2019-03-16T05:24:44.626Z,99336.59
2019-03-16T05:27:10.517Z,99337.42
2019-03-16T05:29:36.345Z,99338.36
2019-03-16T05:32:02.264Z,99332.65
2019-03-16T05:34:28.121Z,99342.69
2019-03-16T05:36:56.112Z,99344.00
2019-03-16T05:39:21.634Z,99346.56
2019-03-16T05:41:47.499Z,99338.66
2019-03-16T05:44:13.369Z,99347.80
2019-03-16T05:46:39.275Z,99349.03
2019-03-16T05:49:05.114Z,99346.97
2019-03-16T05:51:30.971Z,99358.32
2019-03-16T05:53:56.820Z,99353.13
2019-03-16T05:56:22.681Z,99356.17
2019-03-16T05:58:48.560Z,99356.10
2019-03-16T06:01:14.524Z,99357.80
2019-03-16T06:03:40.399Z,99352.45
2019-03-16T06:06:06.267Z,99357.72
2019-03-16T06:08:32.328Z,99353.92
2019-03-16T06:10:58.177Z,99356.02
2019-03-16T06:13:24.168Z,99365.53
2019-03-16T06:15:50.047Z,99362.30
2019-03-16T06:18:15.997Z,99369.70
2019-03-16T06:20:42.008Z,99369.63
2019-03-16T06:23:07.982Z,99369.09
2019-03-16T06:25:33.844Z,99369.96
2019-03-16T06:27:59.694Z,99366.02
2019-03-16T06:30:25.543Z,99370.79
2019-03-16T06:32:51.491Z,99374.36
2019-03-16T06:35:24.480Z,99374.81
2019-03-16T06:37:45.036Z,99373.05
2019-03-16T06:40:11.099Z,99375.15
2019-03-16T06:42:36.950Z,99386.05
2019-03-16T06:45:04.196Z,99378.53
2019-03-16T06:47:30.069Z,99381.95
2019-03-16T06:49:55.920Z,99381.09
2019-03-16T06:52:21.762Z,99382.33
2019-03-16T06:54:47.637Z,99388.38
2019-03-16T06:57:13.615Z,99389.16
2019-03-16T06:59:39.468Z,99385.59
2019-03-16T07:02:05.329Z,99388.94
2019-03-16T07:04:31.264Z,99391.56
2019-03-16T07:06:57.084Z,99389.80
2019-03-16T07:09:23.142Z,99394.50
2019-03-16T07:11:49.071Z,99393.67
2019-03-16T07:14:15.097Z,99398.07
2019-03-16T07:16:40.961Z,99403.79
2019-03-16T07:19:06.802Z,99402.39
2019-03-16T07:21:32.680Z,99408.90
2019-03-16T07:23:58.532Z,99408.83
2019-03-16T07:26:24.400Z,99408.30
2019-03-16T07:28:50.263Z,99411.23
2019-03-16T07:31:16.125Z,99409.83
2019-03-16T07:33:41.973Z,99410.99
2019-03-16T07:36:07.841Z,99407.83
2019-03-16T07:38:35.593Z,99417.27
2019-03-16T07:41:01.571Z,99413.16
2019-03-16T07:43:27.429Z,99419.29
2019-03-16T07:45:53.290Z,99420.23
2019-03-16T07:48:19.160Z,99427.11
2019-03-16T07:50:45.044Z,99429.37
2019-03-16T07:53:10.903Z,99430.69
2019-03-16T07:55:36.730Z,99426.73
2019-03-16T07:58:02.708Z,99434.15
2019-03-16T08:00:28.590Z,99432.84
2019-03-16T08:02:54.551Z,99433.40
2019-03-16T08:05:20.409Z,99441.93
2019-03-16T08:07:46.267Z,99438.36
2019-03-16T08:10:13.155Z,99436.02
2019-03-16T08:12:39.050Z,99447.27
2019-03-16T08:15:05.727Z,99443.61
2019-03-16T08:17:31.585Z,99444.39
2019-03-16T08:19:57.430Z,99444.77
2019-03-16T08:22:23.304Z,99454.40
2019-03-16T08:24:49.187Z,99453.91
2019-03-16T08:27:15.010Z,99449.35
2019-03-16T08:29:40.866Z,99450.13
2019-03-16T08:32:06.850Z,99447.72
2019-03-16T08:34:32.719Z,99447.94
2019-03-16T08:36:58.778Z,99448.64
2019-03-16T08:39:24.650Z,99458.48
2019-03-16T08:41:50.490Z,99458.78
2019-03-16T08:44:16.359Z,99464.30
2019-03-16T08:46:42.232Z,99454.52
2019-03-16T08:49:08.090Z,99457.40
2019-03-16T08:51:33.949Z,99467.78
2019-03-16T08:53:59.801Z,99470.01
2019-03-16T08:56:25.876Z,99464.81
2019-03-16T08:58:51.725Z,99464.28
2019-03-16T09:01:17.590Z,99469.02
2019-03-16T09:03:44.104Z,99457.08
2019-03-16T09:06:09.996Z,99461.33
2019-03-16T09:08:35.889Z,99463.02
2019-03-16T09:11:01.823Z,99460.01
2019-03-16T09:13:27.691Z,99460.09
2019-03-16T09:15:53.823Z,99461.03
2019-03-16T09:18:19.676Z,99462.27
2019-03-16T09:20:45.650Z,99465.66
2019-03-16T09:23:11.513Z,99473.02
2019-03-16T09:25:37.439Z,99466.44
2019-03-16T09:28:03.563Z,99469.32
2019-03-16T09:30:29.440Z,99477.52
2019-03-16T09:32:55.282Z,99474.34
2019-03-16T09:35:21.271Z,99475.09
2019-03-16T09:37:47.123Z,99473.16
2019-03-16T09:40:13.307Z,99474.02
2019-03-16T09:42:39.164Z,99477.81
2019-03-16T09:45:06.907Z,99482.52
2019-03-16T09:47:32.858Z,99478.03
2019-03-16T09:49:58.842Z,99479.80
2019-03-16T09:52:24.688Z,99481.04
2019-03-16T09:54:50.552Z,99483.44
2019-03-16T09:57:16.516Z,99485.45
2019-03-16T09:59:42.369Z,99483.43
2019-03-16T10:02:08.261Z,99482.48
2019-03-16T10:04:34.121Z,99479.23
2019-03-16T10:06:59.984Z,99478.20
2019-03-16T10:09:25.891Z,99488.91
2019-03-16T10:11:51.854Z,99487.67
2019-03-16T10:14:17.717Z,99491.09
2019-03-16T10:16:43.761Z,99495.42
2019-03-16T10:19:09.628Z,99492.78
2019-03-16T10:21:35.464Z,99500.78
2019-03-16T10:24:01.345Z,99500.49
2019-03-16T10:26:27.205Z,99496.62
2019-03-16T10:28:53.264Z,99504.45
2019-03-16T10:31:19.256Z,99502.19
2019-03-16T10:33:45.092Z,99507.09
2019-03-16T10:36:12.016Z,99508.08
2019-03-16T10:38:38.541Z,99509.73
2019-03-16T10:41:04.566Z,99509.89
2019-03-16T10:43:30.418Z,99510.13
2019-03-16T10:45:56.270Z,99509.44
2019-03-16T10:48:22.246Z,99510.45
2019-03-16T10:50:48.210Z,99511.29
2019-03-16T10:53:14.073Z,99513.09
2019-03-16T10:55:40.051Z,99506.42
2019-03-16T10:58:05.915Z,99508.03
2019-03-16T11:00:31.813Z,99510.97
2019-03-16T11:02:57.673Z,99512.98
2019-03-16T11:05:23.825Z,99512.53
2019-03-16T11:07:49.708Z,99514.06
2019-03-16T11:10:15.581Z,99519.25
2019-03-16T11:12:41.413Z,99520.41
2019-03-16T11:15:10.908Z,99525.15
2019-03-16T11:17:37.062Z,99520.41
2019-03-16T11:20:04.733Z,99523.53
2019-03-16T11:22:30.605Z,99521.64
2019-03-16T11:24:56.479Z,99520.24
2019-03-16T11:27:22.326Z,99528.23
2019-03-16T11:29:48.191Z,99531.37
2019-03-16T11:32:14.068Z,99531.91
2019-03-16T11:34:39.917Z,99531.20
2019-03-16T11:37:05.806Z,99527.03
2019-03-16T11:39:32.350Z,99540.39
2019-03-16T11:41:58.197Z,99544.42
2019-03-16T11:44:24.061Z,99542.53
2019-03-16T11:46:49.941Z,99546.73
2019-03-16T11:49:15.818Z,99542.63
2019-03-16T11:51:41.660Z,99540.36
2019-03-16T11:54:07.502Z,99542.00
2019-03-16T11:56:33.344Z,99544.48
2019-03-16T11:58:59.235Z,99547.57
2019-03-16T12:01:25.166Z,99543.98
2019-03-16T12:03:51.140Z,99552.93
2019-03-16T12:06:17.107Z,99553.63
2019-03-16T12:08:43.081Z,99555.03
2019-03-16T12:11:08.942Z,99555.81
2019-03-16T12:13:34.812Z,99552.63
2019-03-16T12:16:00.650Z,99549.43
2019-03-16T12:18:26.812Z,99549.92
2019-03-16T12:20:52.678Z,99559.77
2019-03-16T12:23:18.547Z,99555.89
2019-03-16T12:25:44.411Z,99558.69
2019-03-16T12:28:10.279Z,99563.11
2019-03-16T12:30:36.240Z,99568.38
2019-03-16T12:33:02.405Z,99564.42
2019-03-16T12:35:28.238Z,99572.66
2019-03-16T12:37:54.115Z,99568.70
2019-03-16T12:40:19.961Z,99569.08
2019-03-16T12:42:45.921Z,99569.86
2019-03-16T12:45:12.679Z,99571.27
2019-03-16T12:47:38.629Z,99571.64
2019-03-16T12:50:05.730Z,99572.02
2019-03-16T12:52:31.602Z,99572.88
2019-03-16T12:54:57.440Z,99570.70
2019-03-16T12:57:23.324Z,99566.06
2019-03-16T12:59:49.322Z,99571.17
2019-03-16T13:02:15.274Z,99565.53
2019-03-16T13:04:41.328Z,99569.48
2019-03-16T13:07:07.212Z,99571.17
2019-03-16T13:09:33.057Z,99577.69
2019-03-16T13:11:58.911Z,99582.97
2019-03-16T13:14:24.797Z,99585.52
2019-03-16T13:16:50.652Z,99581.41
2019-03-16T13:19:16.722Z,99574.66
2019-03-16T13:21:43.858Z,99577.91
2019-03-16T13:24:09.924Z,99575.20
2019-03-16T13:26:35.888Z,99579.16
2019-03-16T13:29:01.769Z,99585.67
2019-03-16T13:31:27.644Z,99585.21
2019-03-16T13:33:53.543Z,99587.28
2019-03-16T13:36:19.567Z,99584.19
2019-03-16T13:38:45.625Z,99581.92
2019-03-16T13:41:11.481Z,99584.02
2019-03-16T13:43:37.349Z,99585.27
2019-03-16T13:46:03.289Z,99586.20
2019-03-16T13:48:29.162Z,99589.67
2019-03-16T13:50:55.047Z,99589.59
2019-03-16T13:53:20.900Z,99586.95
2019-03-16T13:55:47.074Z,99594.42
2019-03-16T13:58:12.994Z,99590.92
2019-03-16T14:00:38.953Z,99589.52
2019-03-16T14:03:05.186Z,99586.95
2019-03-16T14:05:31.066Z,99588.36
2019-03-16T14:07:56.920Z,99595.98
2019-03-16T14:10:24.061Z,99592.10
2019-03-16T14:12:49.943Z,99595.61
2019-03-16T14:15:15.892Z,99595.77
2019-03-16T14:17:42.037Z,99596.68
2019-03-16T14:20:09.638Z,99605.16
2019-03-16T14:22:35.505Z,99613.08
2019-03-16T14:25:01.510Z,99606.07
2019-03-16T14:27:28.496Z,99612.30
2019-03-16T14:29:54.354Z,99614.93
2019-03-16T14:32:20.814Z,99611.05
2019-03-16T14:34:46.799Z,99616.17
2019-03-16T14:37:12.856Z,99617.95
2019-03-16T14:39:38.772Z,99613.53
2019-03-16T14:42:04.878Z,99613.00
2019-03-16T14:44:30.743Z,99606.78
2019-03-16T14:46:56.594Z,99611.59
2019-03-16T14:49:23.866Z,99611.27
2019-03-16T14:51:49.702Z,99613.91
2019-03-16T14:54:15.638Z,99614.77
2019-03-16T14:56:41.445Z,99618.81
2019-03-16T14:59:07.396Z,99626.34
2019-03-16T15:01:33.282Z,99615.80
2019-03-16T15:03:59.140Z,99620.99
2019-03-16T15:06:25.118Z,99622.39
2019-03-16T15:08:51.007Z,99621.91
2019-03-16T15:11:16.867Z,99625.03
2019-03-16T15:13:42.724Z,99629.90
2019-03-16T15:16:08.683Z,99625.03
2019-03-16T15:18:35.246Z,99631.78
2019-03-16T15:21:01.324Z,99631.86
2019-03-16T15:23:27.281Z,99639.45
2019-03-16T15:25:53.123Z,99636.44
2019-03-16T15:28:19.029Z,99631.31
2019-03-16T15:30:50.530Z,99630.74
2019-03-16T15:33:12.644Z,99636.09
2019-03-16T15:35:38.497Z,99631.69
2019-03-16T15:38:04.384Z,99632.93
2019-03-16T15:40:30.342Z,99634.70
2019-03-16T15:42:56.288Z,99640.55
2019-03-16T15:45:23.253Z,99633.32
2019-03-16T15:47:49.104Z,99633.02
2019-03-16T15:50:14.985Z,99633.48
2019-03-16T15:52:40.956Z,99636.57
2019-03-16T15:55:06.927Z,99636.27
2019-03-16T15:57:32.803Z,99634.95
2019-03-16T15:59:58.753Z,99638.53
2019-03-16T16:02:24.614Z,99639.92
2019-03-16T16:04:50.558Z,99634.47
2019-03-16T16:07:16.511Z,99635.57
2019-03-16T16:09:42.354Z,99636.89
2019-03-16T16:12:08.266Z,99634.25
2019-03-16T16:14:34.135Z,99634.55
2019-03-16T16:16:59.992Z,99642.39
2019-03-16T16:19:25.873Z,99640.61
2019-03-16T16:21:51.855Z,99645.02
2019-03-16T16:24:17.710Z,99644.11
2019-03-16T16:26:43.695Z,99648.15
2019-03-16T16:29:09.571Z,99646.91
2019-03-16T16:31:35.528Z,99653.09
2019-03-16T16:34:02.945Z,99651.47
2019-03-16T16:36:28.969Z,99647.59
2019-03-16T16:38:54.802Z,99659.00
2019-03-16T16:41:20.774Z,99659.83
2019-03-16T16:43:46.648Z,99667.29
2019-03-16T16:46:13.401Z,99668.69
2019-03-16T16:48:39.339Z,99669.06
2019-03-16T16:51:05.247Z,99677.05
2019-03-16T16:53:31.175Z,99671.02
2019-03-16T16:55:57.024Z,99671.06
2019-03-16T16:58:22.872Z,99672.86
2019-03-16T17:00:48.832Z,99668.58
2019-03-16T17:03:14.797Z,99666.88
2019-03-16T17:05:43.211Z,99668.13
2019-03-16T17:08:08.547Z,99676.48
2019-03-16T17:10:34.441Z,99674.41
2019-03-16T17:13:00.262Z,99677.95
2019-03-16T17:15:26.102Z,99675.09
2019-03-16T17:17:52.058Z,99673.84
2019-03-16T17:20:18.060Z,99677.50
2019-03-16T17:22:44.023Z,99672.38
2019-03-16T17:25:10.809Z,99676.78
2019-03-16T17:27:36.777Z,99672.91
2019-03-16T17:30:04.515Z,99675.92
2019-03-16T17:32:30.513Z,99671.96
2019-03-16T17:34:56.386Z,99677.72
2019-03-16T17:37:22.262Z,99680.43
2019-03-16T17:39:48.107Z,99680.81
2019-03-16T17:42:14.109Z,99681.19
2019-03-16T17:44:39.958Z,99684.77
2019-03-16T17:47:05.851Z,99681.75
2019-03-16T17:49:31.700Z,99679.56
2019-03-16T17:51:58.168Z,99683.06
2019-03-16T17:54:24.249Z,99683.06
2019-03-16T17:56:50.104Z,99677.80
2019-03-16T17:59:15.972Z,99679.19
2019-03-16T18:01:54.037Z,99675.31
2019-03-16T18:04:09.576Z,99689.39
2019-03-16T18:06:35.451Z,99689.02
2019-03-16T18:09:02.032Z,99686.00
2019-03-16T18:11:28.055Z,99692.09
2019-03-16T18:13:53.939Z,99689.02
2019-03-16T18:16:19.803Z,99691.20
2019-03-16T18:18:45.761Z,99689.16
2019-03-16T18:21:11.614Z,99694.58
2019-03-16T18:23:37.678Z,99701.84
2019-03-16T18:26:03.714Z,99701.45
2019-03-16T18:28:29.596Z,99697.95
2019-03-16T18:30:55.444Z,99697.58
2019-03-16T18:33:21.526Z,99699.73
2019-03-16T18:35:47.424Z,99695.70
2019-03-16T18:38:13.290Z,99701.45
2019-03-16T18:40:39.159Z,99701.84
2019-03-16T18:43:05.008Z,99704.47
2019-03-16T18:45:31.373Z,99707.56
2019-03-16T18:47:57.312Z,99708.42
2019-03-16T18:50:23.172Z,99710.68
2019-03-16T18:52:49.150Z,99704.23
2019-03-16T18:55:15.104Z,99709.58
2019-03-16T18:57:41.066Z,99707.92
2019-03-16T19:00:08.587Z,99707.47
2019-03-16T19:02:34.446Z,99707.09
2019-03-16T19:05:00.398Z,99709.72
2019-03-16T19:07:26.752Z,99718.01
2019-03-16T19:09:53.713Z,99721.51
2019-03-16T19:12:19.823Z,99721.89
2019-03-16T19:14:45.672Z,99723.28
2019-03-16T19:17:11.551Z,99718.46
2019-03-16T19:19:37.427Z,99689.23
2019-03-16T19:22:03.386Z,99724.28
2019-03-16T19:24:29.439Z,99720.27
2019-03-16T19:26:55.359Z,99725.05
2019-03-16T19:29:21.318Z,99722.75
2019-03-16T19:31:47.175Z,99724.98
2019-03-16T19:34:13.067Z,99722.41
2019-03-16T19:36:39.049Z,99726.78
2019-03-16T19:39:05.011Z,99730.31
2019-03-16T19:41:30.861Z,99730.39
2019-03-16T19:43:56.721Z,99728.63
2019-03-16T19:46:22.600Z,99733.09
2019-03-16T19:48:48.580Z,99724.73
2019-03-16T19:51:14.447Z,99727.83
2019-03-16T19:53:40.305Z,99726.99
2019-03-16T19:56:08.723Z,99726.65
2019-03-16T19:58:33.931Z,99733.23
2019-03-16T20:00:59.794Z,99736.36
2019-03-16T20:03:25.654Z,99743.39
2019-03-16T20:05:51.526Z,99742.45
2019-03-16T20:08:17.484Z,99738.92
2019-03-16T20:10:43.368Z,99745.02
2019-03-16T20:13:09.206Z,99738.98
2019-03-16T20:15:35.183Z,99742.53
2019-03-16T20:18:01.138Z,99740.76
2019-03-16T20:20:27.098Z,99737.26
2019-03-16T20:22:52.978Z,99742.14
2019-03-16T20:25:18.976Z,99739.97
2019-03-16T20:27:45.118Z,99743.61
2019-03-16T20:30:12.854Z,99748.87
2019-03-16T20:32:38.838Z,99743.30
2019-03-16T20:35:05.686Z,99750.27
2019-03-16T20:37:31.536Z,99743.36
2019-03-16T20:39:57.493Z,99742.12
2019-03-16T20:42:23.365Z,99742.57
2019-03-16T20:44:49.236Z,99741.77
2019-03-16T20:47:15.100Z,99742.23
2019-03-16T20:49:40.958Z,99736.13
2019-03-16T20:52:06.798Z,99746.73
2019-03-16T20:54:32.660Z,99743.38
2019-03-16T20:56:58.534Z,99745.14
2019-03-16T20:59:24.401Z,99739.48
2019-03-16T21:01:50.358Z,99739.03
2019-03-16T21:04:16.343Z,99744.23
2019-03-16T21:06:42.207Z,99743.83
2019-03-16T21:09:08.049Z,99746.94
2019-03-16T21:11:33.904Z,99753.11
2019-03-16T21:13:59.849Z,99747.39
2019-03-16T21:16:25.728Z,99750.89
2019-03-16T21:18:51.716Z,99733.19
2019-03-16T21:21:17.557Z,99754.28
2019-03-16T21:23:43.507Z,99750.02
2019-03-16T21:26:09.660Z,99747.77
2019-03-16T21:28:35.525Z,99754.22
2019-03-16T21:31:01.443Z,99757.72
2019-03-16T21:33:29.679Z,99745.41
2019-03-16T21:35:55.048Z,99752.38
2019-03-16T21:38:20.923Z,99751.52
2019-03-16T21:40:49.151Z,99755.16
2019-03-16T21:43:14.999Z,99754.77
2019-03-16T21:45:40.860Z,99756.92
2019-03-16T21:48:06.756Z,99749.89
2019-03-16T21:50:32.625Z,99755.02
2019-03-16T21:52:58.487Z,99754.94
2019-03-16T21:55:24.358Z,99761.98
2019-03-16T21:57:50.313Z,99753.31
2019-03-16T22:00:16.603Z,99755.60
2019-03-16T22:02:42.469Z,99766.14
2019-03-16T22:05:08.510Z,99759.17
2019-03-16T22:07:34.480Z,99759.24
2019-03-16T22:10:00.409Z,99765.44
2019-03-16T22:12:26.267Z,99774.24
2019-03-16T22:14:52.098Z,99776.50
2019-03-16T22:17:17.965Z,99775.56
2019-03-16T22:19:43.810Z,99778.61
2019-03-16T22:22:09.711Z,99773.73
2019-03-16T22:24:35.764Z,99779.93
2019-03-16T22:27:01.897Z,99782.01
2019-03-16T22:29:27.888Z,99784.12
2019-03-16T22:31:53.857Z,99783.19
2019-03-16T22:34:19.707Z,99783.98
2019-03-16T22:36:45.592Z,99782.15
2019-03-16T22:39:11.434Z,99786.89
2019-03-16T22:41:37.601Z,99783.33
2019-03-16T22:44:03.568Z,99749.57
2019-03-16T22:46:29.440Z,99768.05
2019-03-16T22:48:55.286Z,99773.80
2019-03-16T22:51:21.166Z,99763.98
2019-03-16T22:53:47.029Z,99782.15
2019-03-16T22:56:12.892Z,99787.48
2019-03-16T22:58:38.751Z,99781.70
2019-03-16T23:01:05.028Z,99788.73
2019-03-16T23:03:30.922Z,99783.53
2019-03-16T23:05:56.753Z,99784.92
2019-03-16T23:08:22.609Z,99784.05
2019-03-16T23:10:48.596Z,99787.14
2019-03-16T23:13:14.664Z,99785.05
2019-03-16T23:15:40.623Z,99786.44
2019-03-16T23:18:06.484Z,99740.97
2019-03-16T23:20:32.450Z,99784.78
2019-03-16T23:22:58.341Z,99781.17
2019-03-16T23:25:24.273Z,99777.54
2019-03-16T23:27:50.318Z,99781.80
2019-03-16T23:30:16.300Z,99785.44
2019-03-16T23:32:42.270Z,99776.88
2019-03-16T23:35:08.260Z,99780.06
2019-03-16T23:37:34.228Z,99786.23
2019-03-16T23:40:00.073Z,99786.72
2019-03-16T23:42:26.025Z,99790.19
2019-03-16T23:44:51.988Z,99786.97
2019-03-16T23:47:17.823Z,99789.14
2019-03-16T23:49:43.697Z,99785.13
2019-03-16T23:52:09.756Z,99794.34
2019-03-16T23:54:35.625Z,99793.86
2019-03-16T23:57:01.536Z,99786.16
2019-03-16T23:59:27.366Z,99801.13
